sensor_id;sensor_type;location;lat;lon;timestamp;pressure;altitude;pressure_sealevel;temperature;humidity
12195;BME280;27023;42.680;23.132;2022-07-23T00:00:58;92458.06;;;20.70;66.90
12195;BME280;27023;42.680;23.132;2022-07-23T00:03:25;92463.03;;;20.68;67.10
12195;BME280;27023;42.680;23.132;2022-07-23T00:05:52;92463.47;;;20.62;67.88
12195;BME280;27023;42.680;23.132;2022-07-23T00:08:18;92471.53;;;20.62;67.21
12195;BME280;27023;42.680;23.132;2022-07-23T00:10:45;92470.84;;;20.55;67.77
12195;BME280;27023;42.680;23.132;2022-07-23T00:13:12;92464.78;;;20.47;67.99
12195;BME280;27023;42.680;23.132;2022-07-23T00:15:38;92465.59;;;20.44;67.24
12195;BME280;27023;42.680;23.132;2022-07-23T00:18:07;92467.91;;;20.39;67.48
12195;BME280;27023;42.680;23.132;2022-07-23T00:20:33;92466.41;;;20.34;67.81
12195;BME280;27023;42.680;23.132;2022-07-23T00:23:00;92463.38;;;20.32;67.35
12195;BME280;27023;42.680;23.132;2022-07-23T00:25:27;92465.34;;;20.28;67.11
12195;BME280;27023;42.680;23.132;2022-07-23T00:27:54;92470.00;;;20.20;68.20
12195;BME280;27023;42.680;23.132;2022-07-23T00:30:20;92471.53;;;20.18;70.04
12195;BME280;27023;42.680;23.132;2022-07-23T00:33:03;92470.03;;;20.17;70.08
12195;BME280;27023;42.680;23.132;2022-07-23T00:35:34;92466.63;;;20.13;70.21
12195;BME280;27023;42.680;23.132;2022-07-23T00:38:04;92466.63;;;20.13;69.44
12195;BME280;27023;42.680;23.132;2022-07-23T00:40:31;92464.00;;;20.02;67.93
12195;BME280;27023;42.680;23.132;2022-07-23T00:42:58;92458.25;;;20.04;69.43
12195;BME280;27023;42.680;23.132;2022-07-23T00:45:25;92462.09;;;20.03;69.91
12195;BME280;27023;42.680;23.132;2022-07-23T00:47:52;92462.91;;;19.96;70.59
12195;BME280;27023;42.680;23.132;2022-07-23T00:50:19;92460.69;;;19.87;69.28
12195;BME280;27023;42.680;23.132;2022-07-23T00:52:47;92460.34;;;19.82;69.92
12195;BME280;27023;42.680;23.132;2022-07-23T00:55:14;92455.41;;;19.77;69.44
12195;BME280;27023;42.680;23.132;2022-07-23T00:57:42;92455.81;;;19.75;69.36
12195;BME280;27023;42.680;23.132;2022-07-23T01:00:11;92455.13;;;19.64;69.70
12195;BME280;27023;42.680;23.132;2022-07-23T01:02:39;92462.78;;;19.62;70.53
12195;BME280;27023;42.680;23.132;2022-07-23T01:05:07;92444.50;;;19.50;70.35
12195;BME280;27023;42.680;23.132;2022-07-23T01:07:34;92463.19;;;19.57;72.35
12195;BME280;27023;42.680;23.132;2022-07-23T01:10:04;92462.81;;;19.55;71.26
12195;BME280;27023;42.680;23.132;2022-07-23T01:12:51;92459.78;;;19.49;72.34
12195;BME280;27023;42.680;23.132;2022-07-23T01:15:18;92462.47;;;19.46;71.25
12195;BME280;27023;42.680;23.132;2022-07-23T01:17:45;92456.75;;;19.47;72.15
12195;BME280;27023;42.680;23.132;2022-07-23T01:20:11;92457.09;;;19.49;71.65
12195;BME280;27023;42.680;23.132;2022-07-23T01:22:39;92453.69;;;19.49;71.02
12195;BME280;27023;42.680;23.132;2022-07-23T01:25:07;92456.34;;;19.49;70.79
12195;BME280;27023;42.680;23.132;2022-07-23T01:27:34;92458.66;;;19.47;71.97
12195;BME280;27023;42.680;23.132;2022-07-23T01:30:02;92457.16;;;19.42;72.13
12195;BME280;27023;42.680;23.132;2022-07-23T01:32:29;92450.31;;;19.38;71.42
12195;BME280;27023;42.680;23.132;2022-07-23T01:34:55;92451.81;;;19.42;71.05
12195;BME280;27023;42.680;23.132;2022-07-23T01:37:22;92450.69;;;19.40;72.46
12195;BME280;27023;42.680;23.132;2022-07-23T01:39:50;92449.16;;;19.39;71.93
12195;BME280;27023;42.680;23.132;2022-07-23T01:42:17;92450.28;;;19.41;71.20
12195;BME280;27023;42.680;23.132;2022-07-23T01:44:44;92446.47;;;19.39;70.49
12195;BME280;27023;42.680;23.132;2022-07-23T01:47:10;92448.81;;;19.33;72.01
12195;BME280;27023;42.680;23.132;2022-07-23T01:49:37;92442.69;;;19.29;72.30
12195;BME280;27023;42.680;23.132;2022-07-23T01:52:04;92450.72;;;19.25;71.49
12195;BME280;27023;42.680;23.132;2022-07-23T01:54:34;92438.16;;;19.22;73.32
12195;BME280;27023;42.680;23.132;2022-07-23T01:57:02;92447.34;;;19.18;73.59
12195;BME280;27023;42.680;23.132;2022-07-23T01:59:29;92443.13;;;19.20;73.57
12195;BME280;27023;42.680;23.132;2022-07-23T02:01:56;92450.03;;;19.14;74.48
12195;BME280;27023;42.680;23.132;2022-07-23T02:04:24;92450.41;;;19.13;74.83
12195;BME280;27023;42.680;23.132;2022-07-23T02:06:51;92456.19;;;19.04;75.34
12195;BME280;27023;42.680;23.132;2022-07-23T02:09:19;92450.09;;;19.00;74.04
12195;BME280;27023;42.680;23.132;2022-07-23T02:11:46;92450.09;;;19.00;75.29
12195;BME280;27023;42.680;23.132;2022-07-23T02:14:14;92456.97;;;19.01;75.37
12195;BME280;27023;42.680;23.132;2022-07-23T02:16:40;92454.28;;;19.01;74.84
12195;BME280;27023;42.680;23.132;2022-07-23T02:19:07;92459.63;;;19.01;75.62
12195;BME280;27023;42.680;23.132;2022-07-23T02:21:34;92458.13;;;18.96;75.38
12195;BME280;27023;42.680;23.132;2022-07-23T02:24:01;92454.31;;;18.97;75.07
12195;BME280;27023;42.680;23.132;2022-07-23T02:26:27;92456.63;;;18.92;75.65
12195;BME280;27023;42.680;23.132;2022-07-23T02:28:54;92455.50;;;18.86;76.07
12195;BME280;27023;42.680;23.132;2022-07-23T02:31:22;92449.78;;;18.84;76.77
12195;BME280;27023;42.680;23.132;2022-07-23T02:33:49;92457.06;;;18.80;77.85
12195;BME280;27023;42.680;23.132;2022-07-23T02:36:15;92451.72;;;18.76;75.51
12195;BME280;27023;42.680;23.132;2022-07-23T02:38:42;92458.56;;;18.81;78.87
12195;BME280;27023;42.680;23.132;2022-07-23T02:41:09;92453.59;;;18.83;76.62
12195;BME280;27023;42.680;23.132;2022-07-23T02:43:36;92459.34;;;18.81;77.69
12195;BME280;27023;42.680;23.132;2022-07-23T02:46:02;92452.84;;;18.82;79.22
12195;BME280;27023;42.680;23.132;2022-07-23T02:48:31;92450.91;;;18.90;78.93
12195;BME280;27023;42.680;23.132;2022-07-23T02:50:58;92459.66;;;18.94;76.19
12195;BME280;27023;42.680;23.132;2022-07-23T02:53:24;92466.13;;;19.00;76.41
12195;BME280;27023;42.680;23.132;2022-07-23T02:55:51;92448.59;;;18.95;75.55
12195;BME280;27023;42.680;23.132;2022-07-23T02:58:18;92462.31;;;19.01;75.39
12195;BME280;27023;42.680;23.132;2022-07-23T03:00:44;92462.31;;;19.01;74.17
12195;BME280;27023;42.680;23.132;2022-07-23T03:03:11;92471.06;;;19.05;74.06
12195;BME280;27023;42.680;23.132;2022-07-23T03:05:39;92467.22;;;19.10;73.86
12195;BME280;27023;42.680;23.132;2022-07-23T03:08:06;92477.91;;;19.13;73.84
12195;BME280;27023;42.680;23.132;2022-07-23T03:10:32;92474.47;;;19.13;72.50
12195;BME280;27023;42.680;23.132;2022-07-23T03:12:59;92479.81;;;19.09;70.86
12195;BME280;27023;42.680;23.132;2022-07-23T03:15:26;92476.41;;;19.09;67.23
12195;BME280;27023;42.680;23.132;2022-07-23T03:17:53;92486.22;;;19.26;70.54
12195;BME280;27023;42.680;23.132;2022-07-23T03:20:19;92486.97;;;19.30;69.61
12195;BME280;27023;42.680;23.132;2022-07-23T03:22:47;92484.72;;;19.21;67.53
12195;BME280;27023;42.680;23.132;2022-07-23T03:25:14;92485.94;;;19.10;64.78
12195;BME280;27023;42.680;23.132;2022-07-23T03:27:41;92496.22;;;19.11;67.59
12195;BME280;27023;42.680;23.132;2022-07-23T03:30:08;92495.50;;;19.03;65.71
12195;BME280;27023;42.680;23.132;2022-07-23T03:32:35;92492.84;;;19.00;67.29
12195;BME280;27023;42.680;23.132;2022-07-23T03:35:02;92497.00;;;19.04;66.96
12195;BME280;27023;42.680;23.132;2022-07-23T03:37:29;92493.22;;;19.02;69.18
12195;BME280;27023;42.680;23.132;2022-07-23T03:39:57;92496.28;;;18.97;69.53
12195;BME280;27023;42.680;23.132;2022-07-23T03:42:23;92498.59;;;18.95;70.17
12195;BME280;27023;42.680;23.132;2022-07-23T03:44:50;92497.03;;;18.97;68.88
12195;BME280;27023;42.680;23.132;2022-07-23T03:47:17;92490.94;;;19.00;70.00
12195;BME280;27023;42.680;23.132;2022-07-23T03:49:47;92491.31;;;19.02;70.67
12195;BME280;27023;42.680;23.132;2022-07-23T03:52:14;92488.66;;;18.99;70.66
12195;BME280;27023;42.680;23.132;2022-07-23T03:54:40;92484.44;;;18.98;70.22
12195;BME280;27023;42.680;23.132;2022-07-23T03:57:09;92489.41;;;18.96;67.40
12195;BME280;27023;42.680;23.132;2022-07-23T03:59:35;92494.69;;;19.14;67.17
12195;BME280;27023;42.680;23.132;2022-07-23T04:02:02;92492.72;;;19.25;67.00
12195;BME280;27023;42.680;23.132;2022-07-23T04:04:29;92495.03;;;19.23;71.34
12195;BME280;27023;42.680;23.132;2022-07-23T04:06:55;92482.44;;;19.23;68.99
12195;BME280;27023;42.680;23.132;2022-07-23T04:09:22;92485.47;;;19.32;65.01
12195;BME280;27023;42.680;23.132;2022-07-23T04:11:49;92491.91;;;19.42;64.72
12195;BME280;27023;42.680;23.132;2022-07-23T04:14:17;92488.06;;;19.47;68.25
12195;BME280;27023;42.680;23.132;2022-07-23T04:16:44;92494.13;;;19.51;66.49
12195;BME280;27023;42.680;23.132;2022-07-23T04:19:10;92489.94;;;19.57;65.65
12195;BME280;27023;42.680;23.132;2022-07-23T04:21:37;92499.06;;;19.63;66.43
12195;BME280;27023;42.680;23.132;2022-07-23T04:24:04;92508.94;;;19.70;66.72
12195;BME280;27023;42.680;23.132;2022-07-23T04:26:31;92508.50;;;19.78;66.67
12195;BME280;27023;42.680;23.132;2022-07-23T04:28:57;92508.06;;;19.87;66.80
12195;BME280;27023;42.680;23.132;2022-07-23T04:31:25;92500.38;;;19.92;67.30
12195;BME280;27023;42.680;23.132;2022-07-23T04:33:52;92510.28;;;19.99;66.78
12195;BME280;27023;42.680;23.132;2022-07-23T04:36:19;92505.66;;;20.03;66.71
12195;BME280;27023;42.680;23.132;2022-07-23T04:38:45;92507.19;;;20.08;66.30
12195;BME280;27023;42.680;23.132;2022-07-23T04:41:12;92513.22;;;20.15;66.42
12195;BME280;27023;42.680;23.132;2022-07-23T04:43:39;92513.97;;;20.19;66.80
12195;BME280;27023;42.680;23.132;2022-07-23T04:46:06;92506.66;;;20.23;66.49
12195;BME280;27023;42.680;23.132;2022-07-23T04:48:34;92509.28;;;20.30;66.25
12195;BME280;27023;42.680;23.132;2022-07-23T04:51:00;92509.56;;;20.43;67.33
12195;BME280;27023;42.680;23.132;2022-07-23T04:53:27;92507.56;;;20.54;65.20
12195;BME280;27023;42.680;23.132;2022-07-23T04:55:54;92504.06;;;20.61;67.22
12195;BME280;27023;42.680;23.132;2022-07-23T04:58:21;92508.22;;;20.66;67.60
12195;BME280;27023;42.680;23.132;2022-07-23T05:00:48;92512.78;;;20.69;67.30
12195;BME280;27023;42.680;23.132;2022-07-23T05:03:17;92511.97;;;20.72;66.85
12195;BME280;27023;42.680;23.132;2022-07-23T05:05:45;92513.81;;;20.78;65.96
12195;BME280;27023;42.680;23.132;2022-07-23T05:08:12;92506.50;;;20.86;66.00
12195;BME280;27023;42.680;23.132;2022-07-23T05:10:38;92514.81;;;20.95;65.08
12195;BME280;27023;42.680;23.132;2022-07-23T05:13:05;92509.22;;;21.16;60.53
12195;BME280;27023;42.680;23.132;2022-07-23T05:15:32;92519.44;;;21.29;63.86
12195;BME280;27023;42.680;23.132;2022-07-23T05:17:58;92519.78;;;21.31;63.43
12195;BME280;27023;42.680;23.132;2022-07-23T05:20:25;92521.94;;;21.43;63.50
12195;BME280;27023;42.680;23.132;2022-07-23T05:22:53;92516.78;;;21.59;63.43
12195;BME280;27023;42.680;23.132;2022-07-23T05:25:20;92524.41;;;21.61;64.12
12195;BME280;27023;42.680;23.132;2022-07-23T05:27:47;92531.16;;;21.72;64.87
12195;BME280;27023;42.680;23.132;2022-07-23T05:30:13;92529.13;;;21.80;66.08
12195;BME280;27023;42.680;23.132;2022-07-23T05:32:40;92518.00;;;21.81;65.97
12195;BME280;27023;42.680;23.132;2022-07-23T05:35:07;92520.97;;;21.87;66.95
12195;BME280;27023;42.680;23.132;2022-07-23T05:37:34;92527.75;;;21.95;66.11
12195;BME280;27023;42.680;23.132;2022-07-23T05:40:03;92528.53;;;21.96;65.04
12195;BME280;27023;42.680;23.132;2022-07-23T05:42:31;92528.78;;;22.05;68.74
12195;BME280;27023;42.680;23.132;2022-07-23T05:44:58;92530.81;;;22.24;69.22
12195;BME280;27023;42.680;23.132;2022-07-23T05:47:24;92531.38;;;22.39;68.72
12195;BME280;27023;42.680;23.132;2022-07-23T05:49:51;92532.94;;;22.60;66.42
12195;BME280;27023;42.680;23.132;2022-07-23T05:52:18;92533.97;;;22.66;67.88
12195;BME280;27023;42.680;23.132;2022-07-23T05:54:45;92530.59;;;22.85;66.15
12195;BME280;27023;42.680;23.132;2022-07-23T05:57:13;92524.53;;;22.81;66.26
12195;BME280;27023;42.680;23.132;2022-07-23T05:59:40;92526.84;;;22.79;65.10
12195;BME280;27023;42.680;23.132;2022-07-23T06:02:06;92531.28;;;22.89;65.36
12195;BME280;27023;42.680;23.132;2022-07-23T06:04:33;92524.47;;;22.85;65.15
12195;BME280;27023;42.680;23.132;2022-07-23T06:07:00;92522.13;;;22.87;65.34
12195;BME280;27023;42.680;23.132;2022-07-23T06:09:26;92525.66;;;23.03;64.63
12195;BME280;27023;42.680;23.132;2022-07-23T06:11:53;92521.75;;;23.08;65.61
12195;BME280;27023;42.680;23.132;2022-07-23T06:14:21;92529.25;;;23.17;65.48
12195;BME280;27023;42.680;23.132;2022-07-23T06:16:48;92516.03;;;23.26;65.09
12195;BME280;27023;42.680;23.132;2022-07-23T06:19:15;92529.63;;;23.58;63.13
12195;BME280;27023;42.680;23.132;2022-07-23T06:21:41;92521.16;;;23.76;63.47
12195;BME280;27023;42.680;23.132;2022-07-23T06:24:08;92517.34;;;23.93;62.12
12195;BME280;27023;42.680;23.132;2022-07-23T06:26:35;92524.16;;;23.98;62.85
12195;BME280;27023;42.680;23.132;2022-07-23T06:29:02;92520.31;;;24.15;61.61
12195;BME280;27023;42.680;23.132;2022-07-23T06:31:30;92520.00;;;24.29;59.43
12195;BME280;27023;42.680;23.132;2022-07-23T06:33:57;92519.25;;;24.45;59.33
12195;BME280;27023;42.680;23.132;2022-07-23T06:36:23;92526.59;;;24.61;59.82
12195;BME280;27023;42.680;23.132;2022-07-23T06:38:50;92523.72;;;24.68;57.08
12195;BME280;27023;42.680;23.132;2022-07-23T06:41:17;92529.09;;;24.68;59.39
12195;BME280;27023;42.680;23.132;2022-07-23T06:43:44;92526.31;;;24.71;60.23
12195;BME280;27023;42.680;23.132;2022-07-23T06:46:11;92523.53;;;24.75;59.92
12195;BME280;27023;42.680;23.132;2022-07-23T06:48:39;92528.75;;;24.82;60.67
12195;BME280;27023;42.680;23.132;2022-07-23T06:51:05;92527.78;;;24.89;60.12
12195;BME280;27023;42.680;23.132;2022-07-23T06:53:32;92522.97;;;24.96;61.07
12195;BME280;27023;42.680;23.132;2022-07-23T06:55:59;92530.81;;;24.91;61.63
12195;BME280;27023;42.680;23.132;2022-07-23T06:58:25;92523.91;;;25.06;59.50
12195;BME280;27023;42.680;23.132;2022-07-23T07:00:52;92528.88;;;25.08;60.62
12195;BME280;27023;42.680;23.132;2022-07-23T07:03:19;92526.22;;;25.20;58.52
12195;BME280;27023;42.680;23.132;2022-07-23T07:05:47;92534.91;;;25.28;57.08
12195;BME280;27023;42.680;23.132;2022-07-23T07:08:15;92526.28;;;25.33;58.04
12195;BME280;27023;42.680;23.132;2022-07-23T07:10:42;92531.16;;;25.38;56.31
12195;BME280;27023;42.680;23.132;2022-07-23T07:13:09;92527.63;;;25.25;57.79
12195;BME280;27023;42.680;23.132;2022-07-23T07:15:36;92532.00;;;25.35;56.94
12195;BME280;27023;42.680;23.132;2022-07-23T07:18:02;92529.13;;;25.42;58.52
12195;BME280;27023;42.680;23.132;2022-07-23T07:20:29;92520.28;;;25.54;56.89
12195;BME280;27023;42.680;23.132;2022-07-23T07:22:57;92518.56;;;25.48;58.71
12195;BME280;27023;42.680;23.132;2022-07-23T07:25:24;92520.41;;;25.63;57.84
12195;BME280;27023;42.680;23.132;2022-07-23T07:27:51;92519.66;;;25.63;57.71
12195;BME280;27023;42.680;23.132;2022-07-23T07:30:18;92512.00;;;25.61;59.23
12195;BME280;27023;42.680;23.132;2022-07-23T07:32:45;92519.16;;;25.68;59.15
12195;BME280;27023;42.680;23.132;2022-07-23T07:35:14;92520.69;;;25.82;58.91
12195;BME280;27023;42.680;23.132;2022-07-23T07:37:41;92516.16;;;25.91;57.29
12195;BME280;27023;42.680;23.132;2022-07-23T07:40:10;92514.75;;;26.00;57.50
12195;BME280;27023;42.680;23.132;2022-07-23T07:42:44;92511.97;;;26.03;57.26
12195;BME280;27023;42.680;23.132;2022-07-23T07:45:11;92514.84;;;25.96;59.22
12195;BME280;27023;42.680;23.132;2022-07-23T07:47:37;92510.56;;;26.11;56.14
12195;BME280;27023;42.680;23.132;2022-07-23T07:50:05;92519.50;;;26.21;56.40
12195;BME280;27023;42.680;23.132;2022-07-23T07:52:33;92512.38;;;26.27;57.68
12195;BME280;27023;42.680;23.132;2022-07-23T07:55:01;92511.63;;;26.26;58.56
12195;BME280;27023;42.680;23.132;2022-07-23T07:57:32;92516.84;;;26.34;57.85
12195;BME280;27023;42.680;23.132;2022-07-23T07:59:59;92515.72;;;26.44;57.83
12195;BME280;27023;42.680;23.132;2022-07-23T08:02:26;92513.34;;;26.46;57.88
12195;BME280;27023;42.680;23.132;2022-07-23T08:04:53;92514.84;;;26.59;56.54
12195;BME280;27023;42.680;23.132;2022-07-23T08:07:22;92513.28;;;26.71;56.78
12195;BME280;27023;42.680;23.132;2022-07-23T08:09:49;92515.13;;;26.74;57.38
12195;BME280;27023;42.680;23.132;2022-07-23T08:12:15;92515.56;;;26.73;57.99
12195;BME280;27023;42.680;23.132;2022-07-23T08:14:43;92511.78;;;26.83;55.61
12195;BME280;27023;42.680;23.132;2022-07-23T08:17:10;92507.06;;;26.96;56.02
12195;BME280;27023;42.680;23.132;2022-07-23T08:19:37;92513.34;;;27.06;54.08
12195;BME280;27023;42.680;23.132;2022-07-23T08:22:03;92506.50;;;27.14;54.70
12195;BME280;27023;42.680;23.132;2022-07-23T08:24:30;92506.06;;;27.15;52.87
12195;BME280;27023;42.680;23.132;2022-07-23T08:26:57;92504.47;;;27.27;53.64
12195;BME280;27023;42.680;23.132;2022-07-23T08:29:23;92503.22;;;27.19;53.17
12195;BME280;27023;42.680;23.132;2022-07-23T08:31:51;92500.44;;;27.32;52.35
12195;BME280;27023;42.680;23.132;2022-07-23T08:34:18;92503.97;;;27.41;52.99
12195;BME280;27023;42.680;23.132;2022-07-23T08:36:45;92502.59;;;27.59;52.85
12195;BME280;27023;42.680;23.132;2022-07-23T08:39:11;92500.84;;;27.65;51.24
12195;BME280;27023;42.680;23.132;2022-07-23T08:41:42;92499.84;;;27.71;53.40
12195;BME280;27023;42.680;23.132;2022-07-23T08:44:09;92505.75;;;27.79;53.53
12195;BME280;27023;42.680;23.132;2022-07-23T08:46:36;92503.06;;;27.88;52.09
12195;BME280;27023;42.680;23.132;2022-07-23T08:49:06;92491.97;;;27.95;52.15
12195;BME280;27023;42.680;23.132;2022-07-23T08:51:33;92497.88;;;28.03;50.62
12195;BME280;27023;42.680;23.132;2022-07-23T08:54:00;92495.22;;;28.21;51.75
12195;BME280;27023;42.680;23.132;2022-07-23T08:56:27;92488.50;;;28.26;51.91
12195;BME280;27023;42.680;23.132;2022-07-23T08:58:54;92494.88;;;28.41;50.89
12195;BME280;27023;42.680;23.132;2022-07-23T09:01:21;92493.81;;;28.38;50.67
12195;BME280;27023;42.680;23.132;2022-07-23T09:03:47;92492.66;;;28.58;50.11
12195;BME280;27023;42.680;23.132;2022-07-23T09:06:15;92495.09;;;28.74;49.39
12195;BME280;27023;42.680;23.132;2022-07-23T09:08:43;92496.44;;;28.78;46.71
12195;BME280;27023;42.680;23.132;2022-07-23T09:11:12;92495.28;;;29.25;45.45
12195;BME280;27023;42.680;23.132;2022-07-23T09:13:42;92500.63;;;29.98;44.55
12195;BME280;27023;42.680;23.132;2022-07-23T09:16:11;92495.56;;;30.24;42.85
12195;BME280;27023;42.680;23.132;2022-07-23T09:18:42;92504.63;;;30.21;43.04
12195;BME280;27023;42.680;23.132;2022-07-23T09:21:20;92503.63;;;30.00;42.50
12195;BME280;27023;42.680;23.132;2022-07-23T09:23:53;92491.59;;;29.92;44.17
12195;BME280;27023;42.680;23.132;2022-07-23T09:26:31;92493.97;;;30.09;41.91
12195;BME280;27023;42.680;23.132;2022-07-23T09:29:01;92494.72;;;30.00;42.30
12195;BME280;27023;42.680;23.132;2022-07-23T09:31:48;92494.59;;;29.94;41.14
12195;BME280;27023;42.680;23.132;2022-07-23T09:34:18;92491.34;;;29.63;43.45
12195;BME280;27023;42.680;23.132;2022-07-23T09:36:47;92491.47;;;29.78;43.38
12195;BME280;27023;42.680;23.132;2022-07-23T09:39:16;92485.00;;;29.66;43.09
12195;BME280;27023;42.680;23.132;2022-07-23T09:41:48;92478.97;;;29.62;44.63
12195;BME280;27023;42.680;23.132;2022-07-23T09:44:17;92483.50;;;29.56;43.32
12195;BME280;27023;42.680;23.132;2022-07-23T09:46:46;92477.22;;;29.13;43.24
12195;BME280;27023;42.680;23.132;2022-07-23T09:49:17;92480.53;;;29.45;43.75
12195;BME280;27023;42.680;23.132;2022-07-23T09:51:47;92474.53;;;29.92;38.87
12195;BME280;27023;42.680;23.132;2022-07-23T09:54:21;92471.06;;;30.66;32.68
12195;BME280;27023;42.680;23.132;2022-07-23T09:56:49;92472.81;;;31.17;33.91
12195;BME280;27023;42.680;23.132;2022-07-23T09:59:17;92468.31;;;33.28;32.61
12195;BME280;27023;42.680;23.132;2022-07-23T10:01:45;92462.75;;;36.21;27.73
12195;BME280;27023;42.680;23.132;2022-07-23T10:04:12;92454.22;;;35.58;26.09
12195;BME280;27023;42.680;23.132;2022-07-23T10:06:39;92456.41;;;35.37;26.60
12195;BME280;27023;42.680;23.132;2022-07-23T10:09:08;92456.81;;;34.59;25.09
12195;BME280;27023;42.680;23.132;2022-07-23T10:11:38;92453.06;;;34.99;25.74
12195;BME280;27023;42.680;23.132;2022-07-23T10:14:05;92443.03;;;37.37;23.46
12195;BME280;27023;42.680;23.132;2022-07-23T10:16:31;92445.28;;;41.57;19.37
12195;BME280;27023;42.680;23.132;2022-07-23T10:18:58;92439.50;;;44.25;16.78
12195;BME280;27023;42.680;23.132;2022-07-23T10:21:37;92444.72;;;45.92;15.74
12195;BME280;27023;42.680;23.132;2022-07-23T10:24:16;92443.50;;;48.33;13.29
12195;BME280;27023;42.680;23.132;2022-07-23T10:26:53;92438.81;;;47.30;14.56
12195;BME280;27023;42.680;23.132;2022-07-23T10:29:33;92427.81;;;49.04;12.53
12195;BME280;27023;42.680;23.132;2022-07-23T10:32:08;92420.75;;;48.47;13.91
12195;BME280;27023;42.680;23.132;2022-07-23T10:34:44;92411.50;;;49.39;13.25
12195;BME280;27023;42.680;23.132;2022-07-23T10:37:18;92416.94;;;50.35;11.93
12195;BME280;27023;42.680;23.132;2022-07-23T10:40:08;92414.00;;;51.38;12.76
12195;BME280;27023;42.680;23.132;2022-07-23T10:42:36;92408.13;;;52.23;11.50
12195;BME280;27023;42.680;23.132;2022-07-23T10:45:22;92392.13;;;51.15;11.41
12195;BME280;27023;42.680;23.132;2022-07-23T10:47:49;92401.75;;;49.01;12.57
12195;BME280;27023;42.680;23.132;2022-07-23T10:50:19;92403.31;;;48.85;12.30
12195;BME280;27023;42.680;23.132;2022-07-23T10:53:12;92398.09;;;47.44;13.54
12195;BME280;27023;42.680;23.132;2022-07-23T10:55:47;92388.38;;;44.43;14.96
12195;BME280;27023;42.680;23.132;2022-07-23T10:58:23;92381.94;;;41.46;16.11
12195;BME280;27023;42.680;23.132;2022-07-23T11:00:50;92381.56;;;38.05;19.52
12195;BME280;27023;42.680;23.132;2022-07-23T11:03:31;92374.94;;;37.54;22.84
12195;BME280;27023;42.680;23.132;2022-07-23T11:06:01;92380.41;;;37.13;24.17
12195;BME280;27023;42.680;23.132;2022-07-23T11:08:27;92374.16;;;36.60;22.44
12195;BME280;27023;42.680;23.132;2022-07-23T11:11:08;92377.75;;;35.99;22.94
12195;BME280;27023;42.680;23.132;2022-07-23T11:16:25;92370.34;;;34.84;24.74
12195;BME280;27023;42.680;23.132;2022-07-23T11:19:10;92376.44;;;34.57;23.03
12195;BME280;27023;42.680;23.132;2022-07-23T11:21:50;92371.13;;;34.36;24.00
12195;BME280;27023;42.680;23.132;2022-07-23T11:24:19;92372.16;;;34.45;25.26
12195;BME280;27023;42.680;23.132;2022-07-23T11:26:53;92363.25;;;34.18;23.31
12195;BME280;27023;42.680;23.132;2022-07-23T11:29:43;92370.88;;;34.34;25.71
12195;BME280;27023;42.680;23.132;2022-07-23T11:35:19;92363.44;;;34.40;24.18
12195;BME280;27023;42.680;23.132;2022-07-23T11:37:47;92362.69;;;34.40;25.28
12195;BME280;27023;42.680;23.132;2022-07-23T11:40:15;92355.22;;;34.03;26.14
12195;BME280;27023;42.680;23.132;2022-07-23T11:42:56;92346.78;;;34.01;26.72
12195;BME280;27023;42.680;23.132;2022-07-23T11:45:25;92358.88;;;34.32;25.05
12195;BME280;27023;42.680;23.132;2022-07-23T11:47:52;92360.34;;;34.27;25.03
12195;BME280;27023;42.680;23.132;2022-07-23T11:50:23;92352.34;;;33.50;24.64
12195;BME280;27023;42.680;23.132;2022-07-23T11:52:50;92357.34;;;33.51;26.84
12195;BME280;27023;42.680;23.132;2022-07-23T11:55:17;92348.06;;;32.91;24.59
12195;BME280;27023;42.680;23.132;2022-07-23T11:57:44;92355.72;;;33.39;24.46
12195;BME280;27023;42.680;23.132;2022-07-23T12:00:14;92351.88;;;33.51;25.08
12195;BME280;27023;42.680;23.132;2022-07-23T12:02:44;92343.75;;;33.31;25.45
12195;BME280;27023;42.680;23.132;2022-07-23T12:05:13;92335.25;;;33.29;24.26
12195;BME280;27023;42.680;23.132;2022-07-23T12:07:42;92339.88;;;32.71;27.39
12195;BME280;27023;42.680;23.132;2022-07-23T12:10:13;92344.53;;;33.11;30.05
12195;BME280;27023;42.680;23.132;2022-07-23T12:12:42;92338.41;;;33.22;25.02
12195;BME280;27023;42.680;23.132;2022-07-23T12:15:13;92344.31;;;32.48;28.94
12195;BME280;27023;42.680;23.132;2022-07-23T12:17:42;92344.59;;;31.95;31.86
12195;BME280;27023;42.680;23.132;2022-07-23T12:20:12;92340.81;;;32.07;31.87
12195;BME280;27023;42.680;23.132;2022-07-23T12:22:41;92339.00;;;31.83;31.57
12195;BME280;27023;42.680;23.132;2022-07-23T12:25:10;92323.53;;;31.95;31.03
12195;BME280;27023;42.680;23.132;2022-07-23T12:27:38;92333.50;;;32.33;31.24
12195;BME280;27023;42.680;23.132;2022-07-23T12:30:23;92334.41;;;32.10;31.89
12195;BME280;27023;42.680;23.132;2022-07-23T12:32:52;92334.38;;;32.25;32.12
12195;BME280;27023;42.680;23.132;2022-07-23T12:35:20;92328.97;;;32.50;32.05
12195;BME280;27023;42.680;23.132;2022-07-23T12:37:49;92315.06;;;32.48;31.52
12195;BME280;27023;42.680;23.132;2022-07-23T12:40:22;92313.75;;;33.10;30.03
12195;BME280;27023;42.680;23.132;2022-07-23T12:42:51;92315.91;;;33.58;26.56
12195;BME280;27023;42.680;23.132;2022-07-23T12:45:18;92314.69;;;34.02;27.24
12195;BME280;27023;42.680;23.132;2022-07-23T12:48:01;92317.44;;;34.02;26.80
12195;BME280;27023;42.680;23.132;2022-07-23T12:50:44;92313.53;;;34.14;25.38
12195;BME280;27023;42.680;23.132;2022-07-23T12:53:16;92314.34;;;33.46;29.15
12195;BME280;27023;42.680;23.132;2022-07-23T12:55:44;92310.22;;;32.78;28.33
12195;BME280;27023;42.680;23.132;2022-07-23T12:58:14;92308.75;;;33.35;25.89
12195;BME280;27023;42.680;23.132;2022-07-23T13:00:57;92306.34;;;33.42;28.58
12195;BME280;27023;42.680;23.132;2022-07-23T13:03:37;92307.41;;;32.73;29.75